Main page
METAR-TAF:

METAR-TAF

Airports :

Bingöl Airport

Bingöl, Turkey

latitude: 38-51-40N, longitude: 40-35-33E, elevation: 1063 m

Current weather observation

The report was made 9 hours and 8 minutes ago, at 13:50 UTC
Wind 5 kt from the Southeast
Temperature 26°C
Humidity 32%
Pressure 1017 hPa
Visibility 10 km or more
Few clouds at a height of 3500 ft
Broken clouds at a height of 20000 ft

METAR: LTCU 241350Z 13005KT 9999 FEW035 BKN200 26/08 Q1017

Time: 01:58 (22:58 UTC)

Forecast

The report was made 9 hours and 18 minutes ago, at 13:40 UTC
Forecast valid from 24 at 15 UTC to 24 at 24 UTC
Wind 2 kt from variable directions
Visibility 10 km or more
Few clouds at a height of 3500 ft
Scattered clouds at a height of 20000 ft
Becoming
from 24 at 15 UTC to 24 at 17 UTC
Visibility 10 km or more
no clouds below 1500 m and no cumulonimbus

TAF: LTCU 241340Z 2415/2424 VRB02KT 9999 FEW035 SCT200 BECMG 2415/2417 CAVOK

Weather observations and forecasts of more than 4000 airports (METAR and TAF reports).

The available stations are represented by yellow and red dots on the map.

Hover mouse over dot to see the name of the station.

Then click to see weather observations and forecasts.

To change the map : click on the green buttons with a black cross to zoom in, on the green button with a dash to zoom out, or on the green arrows for adjacent maps.


METAR-TAF: